createdAt,value
2022-08-08T00:01:06.725Z,2.80
2022-08-08T00:03:48.036Z,2.55
2022-08-08T00:06:34.706Z,2.45
2022-08-08T00:09:09.346Z,2.42
2022-08-08T00:11:46.615Z,2.40
2022-08-08T00:14:56.866Z,2.33
2022-08-08T00:17:58.380Z,2.50
2022-08-08T00:20:32.177Z,2.58
2022-08-08T00:23:07.960Z,2.33
2022-08-08T00:25:46.260Z,2.97
2022-08-08T00:28:35.457Z,2.50
2022-08-08T00:32:20.243Z,2.45
2022-08-08T00:34:33.695Z,2.70
2022-08-08T00:37:45.180Z,2.38
2022-08-08T00:41:12.530Z,2.50
2022-08-08T00:43:59.333Z,2.50
2022-08-08T00:47:04.402Z,3.03
2022-08-08T00:50:09.588Z,2.10
2022-08-08T00:52:51.343Z,3.05
2022-08-08T00:56:01.644Z,2.67
2022-08-08T00:59:05.794Z,2.47
2022-08-08T01:01:40.390Z,2.53
2022-08-08T01:04:42.109Z,3.13
2022-08-08T01:07:55.941Z,2.80
2022-08-08T01:11:17.902Z,2.90
2022-08-08T01:14:53.642Z,3.00
2022-08-08T01:18:07.279Z,3.10
2022-08-08T01:20:56.493Z,2.83
2022-08-08T01:24:06.238Z,2.60
2022-08-08T01:27:33.213Z,3.03
2022-08-08T01:30:53.387Z,2.80
2022-08-08T01:33:54.343Z,2.80
2022-08-08T01:37:03.071Z,2.50
2022-08-08T01:39:49.571Z,2.87
2022-08-08T01:42:36.647Z,2.73
2022-08-08T01:45:22.692Z,2.67
2022-08-08T01:48:16.517Z,2.90
2022-08-08T01:51:31.345Z,2.80
2022-08-08T01:55:16.859Z,3.00
2022-08-08T01:57:10.721Z,2.95
2022-08-08T02:00:08.207Z,2.90
2022-08-08T02:03:07.187Z,2.97
2022-08-08T02:05:56.567Z,3.03
2022-08-08T02:08:39.164Z,2.80
2022-08-08T02:12:00.062Z,3.00
2022-08-08T02:14:25.714Z,3.07
2022-08-08T02:17:03.279Z,3.27
2022-08-08T02:20:09.366Z,2.90
2022-08-08T02:22:52.884Z,3.77
2022-08-08T02:25:33.141Z,3.43
2022-08-08T02:28:34.777Z,4.07
2022-08-08T02:31:43.153Z,3.50
2022-08-08T02:34:08.657Z,3.37
2022-08-08T02:36:45.406Z,3.67
2022-08-08T02:39:41.929Z,3.27
2022-08-08T02:43:23.332Z,3.43
2022-08-08T02:46:12.335Z,3.40
2022-08-08T02:49:27.355Z,3.30
2022-08-08T02:52:34.947Z,3.50
2022-08-08T02:55:57.910Z,3.50
2022-08-08T02:59:05.804Z,3.10
2022-08-08T03:02:36.933Z,3.53
2022-08-08T03:05:27.607Z,3.60
2022-08-08T03:09:00.928Z,3.20
2022-08-08T03:12:06.088Z,3.10
2022-08-08T03:16:00.296Z,3.20
2022-08-08T03:18:07.039Z,3.33
2022-08-08T03:20:46.791Z,3.50
2022-08-08T03:23:20.889Z,3.33
2022-08-08T03:25:50.917Z,3.63
2022-08-08T03:28:21.911Z,2.87
2022-08-08T03:31:13.687Z,3.17
2022-08-08T03:33:55.253Z,3.57
2022-08-08T03:36:30.318Z,3.40
2022-08-08T03:39:14.987Z,3.40
2022-08-08T03:42:26.541Z,4.10
2022-08-08T03:44:34.687Z,3.53
2022-08-08T03:47:14.037Z,3.50
2022-08-08T03:50:00.233Z,3.47
2022-08-08T03:52:32.051Z,3.60
2022-08-08T03:55:10.665Z,3.73
2022-08-08T03:58:31.083Z,3.50
2022-08-08T04:00:53.919Z,3.20
2022-08-08T04:03:59.302Z,3.17
2022-08-08T04:06:13.771Z,3.83
2022-08-08T04:08:42.412Z,3.50
2022-08-08T04:11:17.606Z,3.70
2022-08-08T04:14:03.287Z,3.50
2022-08-08T04:16:40.367Z,3.40
2022-08-08T04:19:25.021Z,3.53
2022-08-08T04:21:54.333Z,3.40
2022-08-08T04:24:29.395Z,3.17
2022-08-08T04:27:00.586Z,3.33
2022-08-08T04:29:33.041Z,3.43
2022-08-08T04:32:01.598Z,3.40
2022-08-08T04:34:32.342Z,3.60
2022-08-08T04:37:12.199Z,3.90
2022-08-08T04:40:03.196Z,3.43
2022-08-08T04:42:31.677Z,3.30
2022-08-08T04:45:00.819Z,3.50
2022-08-08T04:47:28.840Z,2.90
2022-08-08T04:50:00.752Z,3.33
2022-08-08T04:52:34.200Z,2.97
2022-08-08T04:55:04.282Z,3.20
2022-08-08T04:57:34.873Z,3.33
2022-08-08T05:00:02.954Z,3.53
2022-08-08T05:02:31.670Z,3.27
2022-08-08T05:05:00.054Z,3.83
2022-08-08T05:07:37.944Z,3.50
2022-08-08T05:10:12.337Z,3.57
2022-08-08T05:13:00.028Z,3.33
2022-08-08T05:15:31.492Z,3.93
2022-08-08T05:18:17.617Z,4.07
2022-08-08T05:20:50.251Z,3.67
2022-08-08T05:23:20.628Z,3.57
2022-08-08T05:25:49.810Z,3.90
2022-08-08T05:28:48.273Z,3.70
2022-08-08T05:31:19.445Z,3.57
2022-08-08T05:33:55.123Z,3.58
2022-08-08T05:36:28.007Z,3.70
2022-08-08T05:38:58.812Z,3.67
2022-08-08T05:41:28.055Z,3.70
2022-08-08T05:44:14.473Z,3.83
2022-08-08T05:46:42.775Z,4.25
2022-08-08T05:49:17.433Z,3.88
2022-08-08T05:51:49.584Z,3.72
2022-08-08T05:54:42.834Z,4.00
2022-08-08T05:57:12.114Z,3.85
2022-08-08T05:59:53.610Z,3.70
2022-08-08T06:02:47.952Z,4.32
2022-08-08T06:05:33.687Z,3.83
2022-08-08T06:08:09.384Z,3.80
2022-08-08T06:10:41.162Z,3.60
2022-08-08T06:13:09.874Z,3.38
2022-08-08T06:15:50.806Z,2.97
2022-08-08T06:18:23.681Z,3.40
2022-08-08T06:20:56.540Z,3.78
2022-08-08T06:23:52.661Z,3.35
2022-08-08T06:26:38.960Z,3.22
2022-08-08T06:29:18.598Z,3.40
2022-08-08T06:32:10.004Z,3.05
2022-08-08T06:34:56.366Z,3.20
2022-08-08T06:37:40.261Z,3.47
2022-08-08T06:40:14.238Z,3.55
2022-08-08T06:42:53.098Z,3.42
2022-08-08T06:45:22.939Z,3.10
2022-08-08T06:48:00.814Z,3.20
2022-08-08T06:50:33.412Z,3.20
2022-08-08T06:53:09.826Z,3.00
2022-08-08T06:55:43.170Z,3.35
2022-08-08T06:58:11.157Z,3.28
2022-08-08T07:00:41.175Z,2.60
2022-08-08T07:03:51.538Z,2.95
2022-08-08T07:06:05.531Z,3.17
2022-08-08T07:08:38.467Z,2.85
2022-08-08T07:11:08.868Z,2.45
2022-08-08T07:14:01.543Z,2.60
2022-08-08T07:16:53.853Z,2.42
2022-08-08T07:19:31.564Z,2.33
2022-08-08T07:22:05.325Z,2.25
2022-08-08T07:24:36.520Z,2.70
2022-08-08T07:27:16.798Z,2.50
2022-08-08T07:29:59.846Z,3.13
2022-08-08T07:32:29.108Z,2.75
2022-08-08T07:35:02.742Z,3.10
2022-08-08T07:37:49.548Z,2.78
2022-08-08T07:40:28.892Z,3.15
2022-08-08T07:42:57.539Z,3.00
2022-08-08T07:45:34.727Z,3.17
2022-08-08T07:48:15.023Z,2.30
2022-08-08T07:50:45.319Z,2.60
2022-08-08T07:53:52.825Z,2.17
2022-08-08T07:56:11.590Z,2.22
2022-08-08T07:58:43.593Z,2.13
2022-08-08T08:01:13.960Z,2.03
2022-08-08T08:03:47.547Z,2.28
2022-08-08T08:06:18.630Z,2.10
2022-08-08T08:08:52.501Z,2.15
2022-08-08T08:11:23.840Z,1.75
2022-08-08T08:14:09.952Z,1.50
2022-08-08T08:16:41.392Z,1.73
2022-08-08T08:19:10.738Z,1.75
2022-08-08T08:21:52.931Z,2.05
2022-08-08T08:24:30.737Z,1.85
2022-08-08T08:27:03.664Z,1.77
2022-08-08T08:29:31.649Z,1.75
2022-08-08T08:32:05.448Z,2.00
2022-08-08T08:34:34.043Z,1.63
2022-08-08T08:37:07.756Z,2.00
2022-08-08T08:39:59.427Z,2.00
2022-08-08T08:42:32.091Z,1.65
2022-08-08T08:45:21.220Z,1.63
2022-08-08T08:47:52.854Z,1.63
2022-08-08T08:50:33.770Z,1.73
2022-08-08T08:53:55.068Z,1.77
2022-08-08T08:56:01.439Z,1.58
2022-08-08T08:58:33.395Z,1.70
2022-08-08T09:01:09.236Z,1.85
2022-08-08T09:03:45.920Z,1.58
2022-08-08T09:06:28.752Z,2.30
2022-08-08T09:09:25.898Z,1.90
2022-08-08T09:12:02.023Z,1.63
2022-08-08T09:14:34.484Z,1.73
2022-08-08T09:17:11.653Z,1.90
2022-08-08T09:21:58.263Z,1.52
2022-08-08T09:22:31.323Z,1.90
2022-08-08T09:25:01.222Z,2.10
2022-08-08T09:27:55.769Z,1.88
2022-08-08T09:30:20.034Z,1.67
2022-08-08T09:33:54.124Z,2.00
2022-08-08T09:35:50.034Z,1.63
2022-08-08T09:38:53.802Z,1.63
2022-08-08T09:42:14.077Z,1.60
2022-08-08T09:44:34.742Z,1.77
2022-08-08T09:48:02.355Z,1.85
2022-08-08T09:50:01.400Z,1.58
2022-08-08T09:52:57.555Z,1.73
2022-08-08T09:55:51.466Z,1.90
2022-08-08T09:58:25.833Z,1.35
2022-08-08T10:01:03.112Z,1.90
2022-08-08T10:03:55.994Z,2.00
2022-08-08T10:06:29.558Z,3.08
2022-08-08T10:08:57.830Z,1.58
2022-08-08T10:12:26.222Z,1.80
2022-08-08T10:14:35.344Z,2.20
2022-08-08T10:17:38.775Z,1.70
2022-08-08T10:20:00.068Z,1.73
2022-08-08T10:22:29.934Z,1.98
2022-08-08T10:25:04.743Z,1.88
2022-08-08T10:27:41.895Z,1.83
2022-08-08T10:30:16.591Z,1.80
2022-08-08T10:33:02.412Z,2.05
2022-08-08T10:36:08.190Z,2.00
2022-08-08T10:38:21.239Z,1.60
2022-08-08T10:40:53.949Z,1.85
2022-08-08T10:43:23.073Z,1.90
2022-08-08T10:45:56.108Z,2.40
2022-08-08T10:48:37.346Z,2.00
2022-08-08T10:51:21.176Z,1.65
2022-08-08T10:53:57.917Z,1.67
2022-08-08T10:56:35.012Z,1.75
2022-08-08T10:59:07.955Z,2.20
2022-08-08T11:01:39.120Z,1.50
2022-08-08T11:04:10.898Z,2.10
2022-08-08T11:06:41.497Z,1.65
2022-08-08T11:09:19.757Z,1.90
2022-08-08T11:12:04.907Z,2.00
2022-08-08T11:14:49.642Z,1.73
2022-08-08T11:18:00.090Z,1.75
2022-08-08T11:20:12.922Z,1.90
2022-08-08T11:22:42.022Z,2.00
2022-08-08T11:25:14.450Z,1.80
2022-08-08T11:27:46.961Z,1.98
2022-08-08T11:30:20.170Z,1.75
2022-08-08T11:32:53.734Z,1.90
2022-08-08T11:35:27.939Z,1.95
2022-08-08T11:38:39.323Z,1.80
2022-08-08T11:40:55.017Z,1.90
2022-08-08T11:43:39.221Z,1.73
2022-08-08T11:46:14.405Z,2.03
2022-08-08T11:48:48.766Z,1.90
2022-08-08T11:51:38.165Z,2.30
2022-08-08T11:54:27.247Z,1.90
2022-08-08T11:56:56.364Z,1.80
2022-08-08T12:00:01.178Z,1.90
2022-08-08T12:02:36.992Z,1.75
2022-08-08T12:05:13.421Z,1.70
2022-08-08T12:07:52.309Z,1.70
2022-08-08T12:10:22.076Z,1.65
2022-08-08T12:12:51.793Z,1.67
2022-08-08T12:15:30.732Z,2.03
2022-08-08T12:18:21.733Z,1.60
2022-08-08T12:20:55.190Z,1.65
2022-08-08T12:23:42.890Z,2.03
2022-08-08T12:26:27.279Z,1.63
2022-08-08T12:28:57.082Z,2.15
2022-08-08T12:31:38.694Z,1.90
2022-08-08T12:34:14.455Z,2.10
2022-08-08T12:36:49.220Z,1.92
2022-08-08T12:40:00.286Z,1.75
2022-08-08T12:42:21.271Z,1.83
2022-08-08T12:44:50.406Z,2.00
2022-08-08T12:47:57.830Z,1.73
2022-08-08T12:50:16.388Z,2.03
2022-08-08T12:52:54.790Z,1.70
2022-08-08T12:55:35.506Z,1.90
2022-08-08T12:58:15.640Z,2.05
2022-08-08T13:00:43.874Z,1.80
2022-08-08T13:03:11.859Z,2.00
2022-08-08T13:06:04.118Z,1.90
2022-08-08T13:08:53.122Z,1.80
2022-08-08T13:11:28.758Z,2.00
2022-08-08T13:14:15.463Z,1.67
2022-08-08T13:16:43.975Z,2.20
2022-08-08T13:19:17.919Z,1.95
2022-08-08T13:21:58.130Z,1.55
2022-08-08T13:24:42.310Z,1.70
2022-08-08T13:27:14.757Z,1.83
2022-08-08T13:29:51.651Z,1.98
2022-08-08T13:32:25.253Z,2.20
2022-08-08T13:34:58.982Z,1.90
2022-08-08T13:38:05.029Z,1.90
2022-08-08T13:40:27.535Z,1.90
2022-08-08T13:42:56.147Z,1.95
2022-08-08T13:45:26.276Z,2.00
2022-08-08T13:47:58.437Z,2.08
2022-08-08T13:50:38.515Z,1.73
2022-08-08T13:53:24.602Z,2.05
2022-08-08T13:56:11.840Z,2.10
2022-08-08T13:58:56.341Z,1.85
2022-08-08T14:01:32.710Z,2.05
2022-08-08T14:04:22.099Z,1.80
2022-08-08T14:06:50.804Z,1.80
2022-08-08T14:09:29.836Z,2.35
2022-08-08T14:12:00.082Z,2.30
2022-08-08T14:14:41.763Z,2.10
2022-08-08T14:17:22.414Z,2.40
2022-08-08T14:20:06.397Z,2.22
2022-08-08T14:22:42.974Z,2.53
2022-08-08T14:25:15.273Z,2.20
2022-08-08T14:28:00.025Z,2.10
2022-08-08T14:30:35.281Z,2.00
2022-08-08T14:33:11.145Z,2.35
2022-08-08T14:35:43.273Z,2.25
2022-08-08T14:38:34.800Z,2.25
2022-08-08T14:41:13.438Z,2.20
2022-08-08T14:44:10.067Z,2.78
2022-08-08T14:46:38.078Z,2.28
2022-08-08T14:49:20.729Z,2.33
2022-08-08T14:52:08.315Z,2.10
2022-08-08T14:54:47.310Z,2.30
2022-08-08T14:57:17.013Z,2.08
2022-08-08T14:59:51.069Z,2.20
2022-08-08T15:02:25.719Z,2.40
2022-08-08T15:05:10.839Z,2.40
2022-08-08T15:07:40.719Z,2.33
2022-08-08T15:10:11.664Z,2.20
2022-08-08T15:12:41.575Z,2.20
2022-08-08T15:15:18.948Z,2.35
2022-08-08T15:18:01.673Z,2.58
2022-08-08T15:20:29.674Z,2.30
2022-08-08T15:22:59.246Z,2.58
2022-08-08T15:25:33.544Z,2.30
2022-08-08T15:28:32.630Z,2.38
2022-08-08T15:30:51.261Z,2.25
2022-08-08T15:33:35.147Z,2.10
2022-08-08T15:36:06.726Z,2.30
2022-08-08T15:38:34.572Z,2.25
2022-08-08T15:41:02.393Z,2.10
2022-08-08T15:43:36.445Z,2.03
2022-08-08T15:46:07.282Z,2.08
2022-08-08T15:48:38.007Z,2.20
2022-08-08T15:51:07.093Z,2.10
2022-08-08T15:53:48.912Z,2.00
2022-08-08T15:56:19.819Z,2.17
2022-08-08T15:58:48.763Z,2.17
2022-08-08T16:01:18.863Z,2.38
2022-08-08T16:03:51.623Z,2.20
2022-08-08T16:06:28.733Z,2.45
2022-08-08T16:13:00.026Z,2.47
2022-08-08T16:13:10.887Z,2.92
2022-08-08T16:14:36.352Z,2.50
2022-08-08T16:17:06.257Z,2.60
2022-08-08T16:19:59.953Z,2.10
2022-08-08T16:22:30.423Z,2.45
2022-08-08T16:24:58.822Z,2.25
2022-08-08T16:27:33.923Z,2.28
2022-08-08T16:30:13.687Z,2.83
2022-08-08T16:32:43.895Z,2.38
2022-08-08T16:35:18.690Z,2.45
2022-08-08T16:37:50.791Z,2.45
2022-08-08T16:40:19.835Z,2.17
2022-08-08T16:42:51.785Z,2.35
2022-08-08T16:46:36.794Z,2.40
2022-08-08T16:48:13.489Z,2.38
2022-08-08T16:50:41.821Z,2.40
2022-08-08T16:55:22.671Z,2.58
2022-08-08T16:56:00.428Z,2.30
2022-08-08T16:58:32.546Z,2.30
2022-08-08T17:01:05.598Z,2.30
2022-08-08T17:04:00.400Z,2.50
2022-08-08T17:06:36.086Z,2.45
2022-08-08T17:09:06.550Z,2.40
2022-08-08T17:11:38.873Z,2.25
2022-08-08T17:14:18.756Z,2.10
2022-08-08T17:16:57.362Z,2.13
2022-08-08T17:19:29.677Z,2.35
2022-08-08T17:21:57.898Z,2.10
2022-08-08T17:24:30.853Z,2.45
2022-08-08T17:26:59.272Z,2.75
2022-08-08T17:29:27.359Z,2.40
2022-08-08T17:31:57.502Z,2.70
2022-08-08T17:34:36.182Z,2.38
2022-08-08T17:37:15.172Z,2.20
2022-08-08T17:40:02.865Z,2.17
2022-08-08T17:42:31.096Z,2.50
2022-08-08T17:44:58.991Z,2.05
2022-08-08T17:47:27.751Z,2.13
2022-08-08T17:50:01.279Z,2.30
2022-08-08T17:52:33.427Z,2.20
2022-08-08T17:55:05.650Z,2.15
2022-08-08T17:57:51.508Z,2.08
2022-08-08T18:00:25.965Z,2.13
2022-08-08T18:03:08.316Z,2.58
2022-08-08T18:05:47.911Z,2.53
2022-08-08T18:08:25.257Z,2.30
2022-08-08T18:11:11.554Z,2.20
2022-08-08T18:13:41.458Z,2.58
2022-08-08T18:16:11.569Z,2.17
2022-08-08T18:18:45.493Z,2.22
2022-08-08T18:21:25.060Z,2.80
2022-08-08T18:24:04.929Z,2.55
2022-08-08T18:26:33.468Z,2.50
2022-08-08T18:29:01.635Z,2.50
2022-08-08T18:31:29.643Z,2.28
2022-08-08T18:34:12.129Z,2.80
2022-08-08T18:36:46.261Z,2.85
2022-08-08T18:39:16.398Z,3.13
2022-08-08T18:41:59.828Z,3.15
2022-08-08T18:44:35.821Z,3.50
2022-08-08T18:47:04.759Z,3.25
2022-08-08T18:49:40.847Z,3.30
2022-08-08T18:52:22.723Z,3.13
2022-08-08T18:55:01.094Z,3.30
2022-08-08T18:57:40.996Z,3.38
2022-08-08T19:00:15.798Z,2.83
2022-08-08T19:02:54.699Z,3.00
2022-08-08T19:05:24.465Z,2.92
2022-08-08T19:08:00.274Z,3.10
2022-08-08T19:10:29.569Z,2.97
2022-08-08T19:12:58.062Z,2.92
2022-08-08T19:15:34.156Z,2.90
2022-08-08T19:18:32.001Z,2.95
2022-08-08T19:20:51.429Z,2.80
2022-08-08T19:23:21.673Z,2.67
2022-08-08T19:26:02.393Z,2.58
2022-08-08T19:28:41.295Z,2.58
2022-08-08T19:31:09.996Z,2.90
2022-08-08T19:34:04.283Z,2.72
2022-08-08T19:36:28.822Z,2.95
2022-08-08T19:38:56.973Z,3.00
2022-08-08T19:41:29.792Z,2.80
2022-08-08T19:44:03.356Z,2.75
2022-08-08T19:46:33.743Z,2.78
2022-08-08T19:49:03.208Z,3.05
2022-08-08T19:51:34.507Z,2.40
2022-08-08T19:54:07.334Z,3.15
2022-08-08T19:56:40.215Z,3.40
2022-08-08T19:59:09.608Z,3.42
2022-08-08T20:02:02.142Z,2.83
2022-08-08T20:04:26.322Z,3.00
2022-08-08T20:06:54.191Z,2.85
2022-08-08T20:09:24.741Z,3.00
2022-08-08T20:11:54.025Z,3.20
2022-08-08T20:14:34.385Z,3.10
2022-08-08T20:17:04.391Z,3.00
2022-08-08T20:19:33.653Z,2.83
2022-08-08T20:22:20.838Z,2.63
2022-08-08T20:24:54.503Z,2.47
2022-08-08T20:27:24.555Z,3.00
2022-08-08T20:30:00.363Z,3.20
2022-08-08T20:32:29.547Z,3.08
2022-08-08T20:35:01.196Z,3.13
2022-08-08T20:37:46.970Z,2.67
2022-08-08T20:40:18.206Z,2.65
2022-08-08T20:43:13.260Z,2.85
2022-08-08T20:45:55.201Z,2.65
2022-08-08T20:48:28.314Z,2.85
2022-08-08T20:50:56.209Z,2.60
2022-08-08T20:53:59.262Z,2.88
2022-08-08T20:56:15.168Z,3.13
2022-08-08T20:58:47.570Z,3.15
2022-08-08T21:01:20.346Z,3.08
2022-08-08T21:03:55.599Z,2.85
2022-08-08T21:06:52.654Z,3.50
2022-08-08T21:09:16.095Z,3.00
2022-08-08T21:11:51.248Z,3.30
2022-08-08T21:14:33.569Z,2.90
2022-08-08T21:17:03.134Z,3.20
2022-08-08T21:19:45.711Z,3.10
2022-08-08T21:22:14.512Z,3.20
2022-08-08T21:24:52.537Z,3.47
2022-08-08T21:27:38.796Z,3.30
2022-08-08T21:30:16.399Z,3.10
2022-08-08T21:32:51.875Z,3.30
2022-08-08T21:36:13.580Z,3.38
2022-08-08T21:38:16.383Z,3.40
2022-08-08T21:40:56.002Z,3.35
2022-08-08T21:43:25.502Z,3.50
2022-08-08T21:48:08.619Z,3.22
2022-08-08T21:48:49.331Z,3.00
2022-08-08T21:51:20.356Z,3.13
2022-08-08T21:54:34.359Z,3.10
2022-08-08T21:56:59.402Z,3.03
2022-08-08T21:59:44.097Z,3.50
2022-08-08T22:02:19.592Z,3.20
2022-08-08T22:04:50.939Z,2.85
2022-08-08T22:07:19.452Z,3.38
2022-08-08T22:09:47.409Z,3.30
2022-08-08T22:12:17.177Z,3.70
2022-08-08T22:14:47.347Z,3.00
2022-08-08T22:17:19.385Z,3.13
2022-08-08T22:20:11.962Z,3.47
2022-08-08T22:22:38.116Z,3.45
2022-08-08T22:25:17.770Z,3.00
2022-08-08T22:28:02.693Z,3.10
2022-08-08T22:30:33.549Z,3.47
2022-08-08T22:33:03.078Z,3.50
2022-08-08T22:36:05.452Z,3.20
2022-08-08T22:38:48.073Z,3.15
2022-08-08T22:41:21.441Z,2.92
2022-08-08T22:44:02.555Z,3.15
2022-08-08T22:46:34.279Z,3.25
2022-08-08T22:49:09.026Z,2.92
2022-08-08T22:51:42.683Z,3.38
2022-08-08T22:54:32.305Z,3.20
2022-08-08T22:57:11.245Z,2.70
2022-08-08T22:59:48.441Z,3.30
2022-08-08T23:02:28.732Z,2.72
2022-08-08T23:05:01.958Z,2.90
2022-08-08T23:07:51.673Z,3.38
2022-08-08T23:10:22.201Z,2.78
2022-08-08T23:12:53.379Z,2.80
2022-08-08T23:16:40.597Z,3.22
2022-08-08T23:18:11.810Z,2.60
2022-08-08T23:20:43.547Z,3.13
2022-08-08T23:23:11.665Z,2.90
2022-08-08T23:25:48.013Z,3.00
2022-08-08T23:28:17.727Z,3.00
2022-08-08T23:30:46.049Z,2.88
2022-08-08T23:33:21.310Z,3.17
2022-08-08T23:36:07.717Z,2.65
2022-08-08T23:38:36.717Z,3.13
2022-08-08T23:41:23.123Z,3.30
2022-08-08T23:43:54.378Z,2.78
2022-08-08T23:49:03.597Z,3.30
2022-08-08T23:49:14.930Z,3.25
2022-08-08T23:52:05.840Z,3.13
2022-08-08T23:54:41.857Z,3.28
2022-08-08T23:57:26.738Z,3.20
